Time;durP1;ratioP1;P1;durP2;ratioP2;P2;SDS_P1;SDS_P2;PMS_P1;PMS_P2;Temp;Humidity;BMP_temperature;BMP_pressure;BME280_temperature;BME280_humidity;BME280_pressure;Samples;Min_cycle;Max_cycle;Signal;HPM_P1;HPM_P2
2023/04/23 00:02:11;;;;;;;;;;;;;;;15.96;54.55;100918.19;5022645;28;885;-43
2023/04/23 00:04:37;;;;;;;;;;;;;;;15.83;54.53;100918.66;5018028;28;1115;-47
2023/04/23 00:07:02;;;;;;;;;;;;;;;17.26;52.62;100917.47;5017271;28;1197;-46
2023/04/23 00:09:30;;;;;;;;;;;;;;;17.06;52.81;100915.56;5017521;28;1076;-47
2023/04/23 00:11:56;;;;;;;;;;;;;;;16.40;54.00;100920.59;5017703;28;1155;-46
2023/04/23 00:14:22;;;;;;;;;;;;;;;16.08;54.27;100902.34;5029526;28;1151;-50
2023/04/23 00:16:48;;;;;;;;;;;;;;;17.30;52.38;100910.34;5017537;28;1051;-51
2023/04/23 00:19:13;;;;;;;;;;;;;;;16.91;52.94;100903.47;5017569;28;1906;-49
2023/04/23 00:21:39;;;;;;;;;;;;;;;16.33;54.23;100903.53;5023302;28;1062;-51
2023/04/23 00:24:04;;;;;;;;;;;;;;;16.12;54.40;100910.03;5018176;28;1162;-50
2023/04/23 00:26:30;;;;;;;;;;;;;;;15.93;54.30;100909.66;5022955;28;892;-49
2023/04/23 00:28:56;;;;;;;;;;;;;;;16.98;53.19;100905.91;5016798;28;1114;-48
2023/04/23 00:31:23;;;;;;;;;;;;;;;17.04;52.76;100909.50;5017008;28;1095;-47
2023/04/23 00:33:48;;;;;;;;;;;;;;;16.39;54.23;100907.13;5029898;28;1155;-49
2023/04/23 00:36:15;;;;;;;;;;;;;;;16.14;54.07;100897.69;5016794;28;1092;-49
2023/04/23 00:38:41;;;;;;;;;;;;;;;15.94;54.37;100912.16;5017112;28;1906;-47
2023/04/23 00:41:06;;;;;;;;;;;;;;;16.19;54.71;100905.94;5015995;28;1254;-49
2023/04/23 00:43:34;;;;;;;;;;;;;;;17.61;51.57;100905.66;5015287;28;1060;-54
2023/04/23 00:46:00;;;;;;;;;;;;;;;16.70;53.69;100908.03;4999252;28;1268;-48
2023/04/23 00:48:25;;;;;;;;;;;;;;;16.24;54.42;100908.72;5017009;28;1158;-49
2023/04/23 00:50:59;;;;;;;;;;;;;;;16.02;54.34;100908.91;5014981;28;988;-49
2023/04/23 00:53:25;;;;;;;;;;;;;;;15.86;54.22;100907.16;5016538;28;1068;-51
2023/04/23 00:55:51;;;;;;;;;;;;;;;16.31;54.52;100910.38;5016866;28;1059;-52
2023/04/23 00:58:17;;;;;;;;;;;;;;;17.54;51.54;100909.78;5016996;28;1028;-47
2023/04/23 01:00:45;;;;;;;;;;;;;;;16.65;53.58;100916.28;5016810;28;1895;-50
2023/04/23 01:03:11;;;;;;;;;;;;;;;16.16;54.37;100911.97;5016635;28;1044;-54
2023/04/23 01:05:38;;;;;;;;;;;;;;;15.89;54.51;100914.84;5015228;28;1214;-48
2023/04/23 01:08:03;;;;;;;;;;;;;;;16.80;53.83;100906.41;5022691;28;931;-52
2023/04/23 01:10:31;;;;;;;;;;;;;;;17.47;51.59;100909.22;5016663;28;1135;-52
2023/04/23 01:12:56;;;;;;;;;;;;;;;16.56;53.69;100909.66;5018979;28;1115;-45
2023/04/23 01:15:22;;;;;;;;;;;;;;;16.20;54.34;100909.50;5005149;28;1457;-48
2023/04/23 01:17:47;;;;;;;;;;;;;;;16.20;54.51;100904.88;5016930;28;1048;-50
2023/04/23 01:20:13;;;;;;;;;;;;;;;17.33;51.87;100904.28;5016433;28;1902;-50
2023/04/23 01:22:39;;;;;;;;;;;;;;;16.51;53.99;100904.13;5022918;28;2057;-45
2023/04/23 01:25:06;;;;;;;;;;;;;;;16.15;54.23;100906.78;5017523;28;1379;-51
2023/04/23 01:27:34;;;;;;;;;;;;;;;15.95;54.44;100902.00;5002774;28;1311;-48
2023/04/23 01:30:01;;;;;;;;;;;;;;;15.88;54.49;100902.25;5007985;28;1155;-48
2023/04/23 01:32:27;;;;;;;;;;;;;;;17.37;52.25;100899.88;5016474;28;1143;-46
2023/04/23 01:34:53;;;;;;;;;;;;;;;16.80;53.36;100895.44;5014377;28;1049;-49
2023/04/23 01:37:18;;;;;;;;;;;;;;;16.23;54.14;100909.81;5003779;28;1207;-51
2023/04/23 01:39:45;;;;;;;;;;;;;;;16.01;54.39;100909.97;5014989;28;1970;-52
2023/04/23 01:42:10;;;;;;;;;;;;;;;17.17;52.69;100906.22;5016280;28;1028;-53
2023/04/23 01:44:35;;;;;;;;;;;;;;;16.75;53.04;100905.31;5015346;28;1211;-49
2023/04/23 01:47:01;;;;;;;;;;;;;;;16.24;54.27;100907.88;5015722;28;1431;-54
2023/04/23 01:49:27;;;;;;;;;;;;;;;16.01;54.41;100904.50;5023145;28;1122;-48
2023/04/23 01:51:52;;;;;;;;;;;;;;;16.32;54.45;100901.88;5020367;28;1071;-51
2023/04/23 01:54:18;;;;;;;;;;;;;;;17.61;51.21;100913.06;5020487;28;1028;-53
2023/04/23 01:56:43;;;;;;;;;;;;;;;16.60;53.36;100908.03;5018872;28;1096;-49
2023/04/23 01:59:09;;;;;;;;;;;;;;;16.27;53.82;100910.13;5035497;28;1965;-49
2023/04/23 02:01:44;;;;;;;;;;;;;;;15.99;54.04;100901.22;5022726;28;1138;-51
2023/04/23 02:04:10;;;;;;;;;;;;;;;15.82;54.08;100901.41;5019672;28;1166;-47
2023/04/23 02:06:36;;;;;;;;;;;;;;;15.69;54.04;100905.38;5019887;28;1170;-52
2023/04/23 02:09:01;;;;;;;;;;;;;;;16.60;53.75;100919.00;5018287;28;1971;-50
2023/04/23 02:11:27;;;;;;;;;;;;;;;17.47;51.45;100922.97;5019923;28;1067;-52
2023/04/23 02:13:52;;;;;;;;;;;;;;;16.45;53.93;100918.94;5019462;28;1229;-48
2023/04/23 02:16:18;;;;;;;;;;;;;;;16.10;54.45;100910.28;5034941;28;1203;-52
2023/04/23 02:18:44;;;;;;;;;;;;;;;15.88;54.32;100913.22;5018380;28;1906;-52
2023/04/23 02:21:10;;;;;;;;;;;;;;;16.99;53.05;100915.00;5021666;28;1090;-48
2023/04/23 02:23:35;;;;;;;;;;;;;;;17.00;52.59;100925.72;5024372;28;1031;-52
2023/04/23 02:26:01;;;;;;;;;;;;;;;16.35;53.98;100928.78;5026626;28;1115;-52
2023/04/23 02:28:26;;;;;;;;;;;;;;;16.02;54.16;100924.50;5022762;28;1227;-51
2023/04/23 02:30:52;;;;;;;;;;;;;;;16.83;53.13;100922.34;5019623;28;1068;-52
2023/04/23 02:33:18;;;;;;;;;;;;;;;17.30;51.73;100921.31;5017801;28;1254;-54
2023/04/23 02:35:44;;;;;;;;;;;;;;;16.48;53.77;100926.63;5018045;28;1004;-52
2023/04/23 02:38:09;;;;;;;;;;;;;;;16.17;53.84;100929.25;5022752;28;1068;-52
2023/04/23 02:40:35;;;;;;;;;;;;;;;16.81;53.49;100927.28;5019259;28;1984;-52
2023/04/23 02:43:01;;;;;;;;;;;;;;;17.17;52.21;100922.69;5018889;28;1084;-50
2023/04/23 02:45:26;;;;;;;;;;;;;;;16.43;53.85;100920.03;5019160;28;1122;-51
2023/04/23 02:47:52;;;;;;;;;;;;;;;16.16;53.95;100927.59;5019016;28;1245;-49
2023/04/23 02:50:17;;;;;;;;;;;;;;;15.97;53.99;100919.84;5013125;28;1025;-52
2023/04/23 02:52:43;;;;;;;;;;;;;;;16.22;54.24;100921.06;5011930;28;1262;-51
2023/04/23 02:55:09;;;;;;;;;;;;;;;17.38;51.84;100922.72;5029781;28;1892;-54
2023/04/23 02:57:35;;;;;;;;;;;;;;;16.49;53.39;100922.81;5038431;28;1432;-53
2023/04/23 03:00:01;;;;;;;;;;;;;;;16.12;54.02;100924.59;5017616;28;1914;-52
2023/04/23 03:02:33;;;;;;;;;;;;;;;15.90;54.10;100913.75;5022753;28;1218;-56
2023/04/23 03:04:58;;;;;;;;;;;;;;;16.04;54.56;100923.16;5017445;28;1234;-56
2023/04/23 03:07:24;;;;;;;;;;;;;;;17.52;51.53;100917.47;5020734;28;1163;-56
2023/04/23 03:09:49;;;;;;;;;;;;;;;16.71;53.14;100925.34;5029219;28;1003;-56
2023/04/23 03:12:15;;;;;;;;;;;;;;;16.21;54.04;100922.16;5017123;28;1170;-55
2023/04/23 03:14:41;;;;;;;;;;;;;;;16.26;54.25;100927.66;5020159;28;1294;-61
2023/04/23 03:17:06;;;;;;;;;;;;;;;17.53;51.39;100930.09;5017115;28;1222;-59
2023/04/23 03:19:32;;;;;;;;;;;;;;;16.60;53.31;100929.97;5018032;28;1898;-52
2023/04/23 03:21:58;;;;;;;;;;;;;;;16.26;53.90;100927.66;5026483;28;1029;-53
2023/04/23 03:24:24;;;;;;;;;;;;;;;15.96;54.31;100929.16;5017604;28;1502;-49
2023/04/23 03:26:50;;;;;;;;;;;;;;;15.85;54.23;100920.06;5027614;28;1118;-56
2023/04/23 03:29:15;;;;;;;;;;;;;;;17.06;52.56;100932.84;5018502;28;1198;-58
2023/04/23 03:31:41;;;;;;;;;;;;;;;16.99;52.48;100932.28;5017281;28;1084;-57
2023/04/23 03:34:09;;;;;;;;;;;;;;;16.30;54.24;100933.44;5016808;28;1238;-58
2023/04/23 03:36:35;;;;;;;;;;;;;;;16.04;54.17;100938.81;5017173;28;1300;-55
2023/04/23 03:39:01;;;;;;;;;;;;;;;17.28;52.00;100934.53;5021151;28;1983;-57
2023/04/23 03:41:33;;;;;;;;;;;;;;;17.17;51.79;100935.63;5017850;28;1131;-53
2023/04/23 03:43:59;;;;;;;;;;;;;;;16.51;53.42;100946.16;5016900;28;1130;-55
2023/04/23 03:46:40;;;;;;;;;;;;;;;16.19;53.81;100938.06;5016644;28;1206;-52
2023/04/23 03:49:05;;;;;;;;;;;;;;;15.94;54.37;100944.25;5016379;28;1120;-53
2023/04/23 03:51:31;;;;;;;;;;;;;;;15.95;54.37;100946.72;5028526;28;1210;-53
2023/04/23 03:53:56;;;;;;;;;;;;;;;17.49;51.54;100951.00;5011582;28;1343;-56
2023/04/23 03:56:41;;;;;;;;;;;;;;;16.60;53.31;100949.19;5007031;28;1248;-55
2023/04/23 03:59:19;;;;;;;;;;;;;;;16.16;54.38;100955.88;5038108;28;1975;-48
2023/04/23 04:01:47;;;;;;;;;;;;;;;15.94;54.43;100964.25;5022545;28;1375;-55
2023/04/23 04:04:13;;;;;;;;;;;;;;;15.81;54.05;100956.47;5031064;28;892;-53
2023/04/23 04:06:39;;;;;;;;;;;;;;;17.03;52.81;100958.13;5037675;28;1036;-52
2023/04/23 04:09:06;;;;;;;;;;;;;;;17.02;52.24;100953.72;5037042;28;1066;-52
2023/04/23 04:11:32;;;;;;;;;;;;;;;16.33;53.97;100963.09;5026536;28;1220;-54
2023/04/23 04:13:57;;;;;;;;;;;;;;;16.00;54.49;100965.91;5018815;28;1306;-54
2023/04/23 04:16:23;;;;;;;;;;;;;;;15.81;54.29;100968.28;5017486;28;887;-54
2023/04/23 04:18:48;;;;;;;;;;;;;;;15.72;54.49;100973.41;5017116;28;1906;-52
2023/04/23 04:21:16;;;;;;;;;;;;;;;15.64;54.32;100970.31;5017939;28;1085;-54
2023/04/23 04:23:42;;;;;;;;;;;;;;;16.91;52.88;100974.88;5020919;28;1438;-52
2023/04/23 04:26:07;;;;;;;;;;;;;;;16.96;52.50;100976.81;5017541;28;1064;-51
2023/04/23 04:28:35;;;;;;;;;;;;;;;16.23;54.16;100978.41;5020996;28;1062;-52
2023/04/23 04:31:01;;;;;;;;;;;;;;;15.96;54.42;100975.78;5017280;28;1067;-50
2023/04/23 04:33:27;;;;;;;;;;;;;;;15.73;54.82;100982.44;5016885;28;1162;-50
2023/04/23 04:35:53;;;;;;;;;;;;;;;15.60;54.78;100980.97;5011042;28;1177;-50
2023/04/23 04:38:20;;;;;;;;;;;;;;;16.88;53.04;100985.53;5013513;28;1242;-50
2023/04/23 04:40:48;;;;;;;;;;;;;;;17.04;52.35;100981.75;5004761;28;1985;-49
2023/04/23 04:43:14;;;;;;;;;;;;;;;16.30;54.12;100980.91;5016217;28;1360;-53
2023/04/23 04:45:39;;;;;;;;;;;;;;;16.00;54.43;100985.13;5011342;28;1239;-52
2023/04/23 04:48:05;;;;;;;;;;;;;;;15.77;54.79;100988.22;5005454;28;1187;-51
2023/04/23 04:50:30;;;;;;;;;;;;;;;16.80;53.19;100994.28;5016939;28;1163;-49
2023/04/23 04:52:56;;;;;;;;;;;;;;;16.74;53.00;100990.72;5007916;28;1224;-50
2023/04/23 04:55:22;;;;;;;;;;;;;;;16.21;54.01;100990.75;5015261;28;1254;-52
2023/04/23 04:57:47;;;;;;;;;;;;;;;15.96;54.41;100991.41;5008453;28;1169;-51
2023/04/23 05:00:21;;;;;;;;;;;;;;;15.81;54.36;100989.38;5014419;28;1910;-53
2023/04/23 05:02:47;;;;;;;;;;;;;;;15.67;54.51;100999.94;5012384;28;1491;-50
2023/04/23 05:05:13;;;;;;;;;;;;;;;16.10;54.66;100994.50;5014939;28;1286;-51
2023/04/23 05:07:38;;;;;;;;;;;;;;;16.57;52.93;100985.44;5011880;28;1151;-51
2023/04/23 05:10:04;;;;;;;;;;;;;;;15.89;52.71;100991.63;5014674;28;1289;-52
2023/04/23 05:12:30;;;;;;;;;;;;;;;15.56;51.74;100994.38;5011193;28;1124;-51
2023/04/23 05:14:55;;;;;;;;;;;;;;;15.51;50.55;100994.31;5016049;28;1396;-46
2023/04/23 05:17:21;;;;;;;;;;;;;;;16.55;52.56;100993.09;5010536;28;1135;-52
2023/04/23 05:19:46;;;;;;;;;;;;;;;15.85;52.42;100996.00;5000426;28;1977;-48
2023/04/23 05:22:12;;;;;;;;;;;;;;;15.52;51.40;100998.72;5009398;28;1112;-50
2023/04/23 05:24:37;;;;;;;;;;;;;;;16.12;51.61;100995.06;5016490;28;1087;-51
2023/04/23 05:27:03;;;;;;;;;;;;;;;16.16;52.28;100998.94;5012911;28;1271;-52
2023/04/23 05:29:28;;;;;;;;;;;;;;;15.73;51.38;100994.22;5013168;28;1028;-50
2023/04/23 05:31:54;;;;;;;;;;;;;;;16.70;51.88;100995.91;5003599;28;1416;-49
2023/04/23 05:34:20;;;;;;;;;;;;;;;16.18;51.62;100994.84;5016647;28;1198;-50
2023/04/23 05:36:45;;;;;;;;;;;;;;;15.80;50.83;100999.53;5016238;28;1039;-48
2023/04/23 05:39:11;;;;;;;;;;;;;;;16.39;51.92;100995.78;5020026;28;1910;-50
2023/04/23 05:41:36;;;;;;;;;;;;;;;15.90;51.58;100994.09;5023184;28;1062;-51
2023/04/23 05:44:02;;;;;;;;;;;;;;;15.76;50.17;100997.56;5016160;28;1103;-51
2023/04/23 05:46:27;;;;;;;;;;;;;;;17.06;50.89;101001.53;5016297;28;1123;-50
2023/04/23 05:48:53;;;;;;;;;;;;;;;16.13;51.44;101002.22;5015983;28;1221;-50
2023/04/23 05:51:18;;;;;;;;;;;;;;;17.16;51.19;100994.41;5020620;28;1127;-51
2023/04/23 05:53:44;;;;;;;;;;;;;;;17.10;51.47;100999.91;5016336;28;1118;-49
2023/04/23 05:56:09;;;;;;;;;;;;;;;16.38;51.30;101002.38;5009963;28;1386;-49
2023/04/23 05:58:35;;;;;;;;;;;;;;;16.19;49.93;100998.44;5001770;28;1130;-50
2023/04/23 06:01:01;;;;;;;;;;;;;;;16.04;49.08;101005.44;5001252;28;1903;-51
2023/04/23 06:03:27;;;;;;;;;;;;;;;15.85;48.72;100998.72;5020495;28;1086;-49
2023/04/23 06:05:52;;;;;;;;;;;;;;;15.70;48.57;100997.50;5020625;28;1256;-51
2023/04/23 06:08:19;;;;;;;;;;;;;;;16.56;50.43;101000.25;5015668;28;1218;-51
2023/04/23 06:10:44;;;;;;;;;;;;;;;16.50;51.40;101001.31;5011327;28;1095;-50
2023/04/23 06:13:10;;;;;;;;;;;;;;;16.06;50.52;101005.19;5015944;28;1150;-49
2023/04/23 06:15:35;;;;;;;;;;;;;;;15.88;49.44;100998.22;5018654;28;1063;-51
2023/04/23 06:18:01;;;;;;;;;;;;;;;16.98;51.07;101004.00;5013081;28;1138;-50
2023/04/23 06:20:27;;;;;;;;;;;;;;;16.18;51.03;101011.28;5011788;28;1971;-51
2023/04/23 06:22:52;;;;;;;;;;;;;;;16.06;49.60;101002.44;5023291;28;1194;-49
2023/04/23 06:25:18;;;;;;;;;;;;;;;16.44;50.37;101014.19;5015369;28;1138;-51
2023/04/23 06:27:43;;;;;;;;;;;;;;;16.55;51.21;100999.44;5021486;28;1202;-50
2023/04/23 06:30:16;;;;;;;;;;;;;;;16.16;49.95;101007.16;5017847;28;1282;-50
2023/04/23 06:32:43;;;;;;;;;;;;;;;17.25;50.44;101001.00;5014214;28;1518;-51
2023/04/23 06:35:08;;;;;;;;;;;;;;;16.31;50.87;101004.50;5014819;28;1111;-51
2023/04/23 06:37:34;;;;;;;;;;;;;;;16.38;50.97;101002.38;5019224;28;1160;-51
2023/04/23 06:40:00;;;;;;;;;;;;;;;16.81;51.00;101006.94;5021938;28;1902;-48
2023/04/23 06:42:25;;;;;;;;;;;;;;;16.29;50.13;100998.47;5019395;28;1096;-48
2023/04/23 06:45:30;;;;;;;;;;;;;;;16.07;49.27;101004.94;5014053;28;1251;-49
2023/04/23 06:47:56;;;;;;;;;;;;;;;17.12;50.46;101002.38;5017527;28;1164;-52
2023/04/23 06:50:22;;;;;;;;;;;;;;;16.56;50.46;101008.47;5009128;28;1088;-52
2023/04/23 06:52:47;;;;;;;;;;;;;;;16.80;50.85;101006.09;5031012;28;1170;-50
2023/04/23 06:55:14;;;;;;;;;;;;;;;17.44;50.19;100998.56;5019515;28;1163;-52
2023/04/23 06:57:39;;;;;;;;;;;;;;;16.63;50.76;101006.31;5019719;28;1221;-49
2023/04/23 07:00:07;;;;;;;;;;;;;;;16.32;49.94;101005.34;5012203;28;1918;-52
2023/04/23 07:02:36;;;;;;;;;;;;;;;16.21;48.63;101012.69;5046956;28;1293;-49
2023/04/23 07:05:02;;;;;;;;;;;;;;;16.06;48.24;101006.03;5024406;28;907;-49
2023/04/23 07:07:28;;;;;;;;;;;;;;;17.03;50.34;101009.50;5018847;28;1194;-49
2023/04/23 07:09:53;;;;;;;;;;;;;;;16.45;50.22;101015.00;5019109;28;1051;-51
2023/04/23 07:12:18;;;;;;;;;;;;;;;17.00;50.37;101019.13;5013502;28;1240;-52
2023/04/23 07:14:44;;;;;;;;;;;;;;;17.39;50.46;101023.28;5019206;28;1202;-48
2023/04/23 07:17:10;;;;;;;;;;;;;;;16.62;50.66;101021.16;5030765;28;1139;-50
2023/04/23 07:19:36;;;;;;;;;;;;;;;16.33;49.76;101012.50;5018973;28;1907;-49
2023/04/23 07:22:01;;;;;;;;;;;;;;;16.22;48.86;101012.41;5026066;28;1027;-51
2023/04/23 07:24:27;;;;;;;;;;;;;;;16.92;50.16;101012.22;5018807;28;1206;-49
2023/04/23 07:26:52;;;;;;;;;;;;;;;16.37;49.85;101019.91;5018803;28;1237;-51
2023/04/23 07:29:18;;;;;;;;;;;;;;;16.14;49.13;101020.34;5023323;28;1327;-52
2023/04/23 07:31:43;;;;;;;;;;;;;;;16.96;49.82;101004.25;5015484;28;1002;-53
2023/04/23 07:34:09;;;;;;;;;;;;;;;16.41;50.03;101010.06;5012504;28;1021;-52
2023/04/23 07:36:35;;;;;;;;;;;;;;;16.26;49.09;101009.97;5018393;28;1187;-50
2023/04/23 07:39:00;;;;;;;;;;;;;;;16.04;48.45;101001.88;5018373;28;1910;-52
2023/04/23 07:41:26;;;;;;;;;;;;;;;16.75;49.59;101011.59;5030572;28;1118;-52
2023/04/23 07:43:51;;;;;;;;;;;;;;;16.23;49.47;101005.84;5018393;28;1040;-51
2023/04/23 07:46:17;;;;;;;;;;;;;;;16.56;49.61;101008.47;5016693;28;1276;-52
2023/04/23 07:48:42;;;;;;;;;;;;;;;16.68;49.60;101003.59;5007003;28;1052;-52
2023/04/23 07:51:08;;;;;;;;;;;;;;;16.21;49.45;100996.22;5017843;28;1139;-51
2023/04/23 07:53:33;;;;;;;;;;;;;;;16.01;49.02;101003.25;5025366;28;913;-51
2023/04/23 07:55:59;;;;;;;;;;;;;;;16.76;49.23;101005.81;5018463;28;1068;-52
2023/04/23 07:58:24;;;;;;;;;;;;;;;16.40;49.68;100997.44;5018324;28;1121;-51
2023/04/23 08:00:50;;;;;;;;;;;;;;;16.08;49.06;100992.84;5018136;28;1987;-52
2023/04/23 08:03:15;;;;;;;;;;;;;;;15.96;48.59;100992.22;5018457;28;1067;-46
2023/04/23 08:05:41;;;;;;;;;;;;;;;15.90;48.00;100991.38;5020051;28;878;-49
2023/04/23 08:08:07;;;;;;;;;;;;;;;15.83;47.80;100995.44;5029870;28;1123;-47
2023/04/23 08:10:33;;;;;;;;;;;;;;;16.17;48.14;100989.63;5017990;28;1130;-51
2023/04/23 08:12:58;;;;;;;;;;;;;;;16.87;49.41;100995.69;5016601;28;1041;-51
2023/04/23 08:15:25;;;;;;;;;;;;;;;16.21;49.35;100986.06;5017634;28;1102;-51
2023/04/23 08:17:51;;;;;;;;;;;;;;;16.03;48.73;100992.84;5026241;28;884;-50
2023/04/23 08:20:16;;;;;;;;;;;;;;;16.89;49.29;100988.03;5017583;28;1987;-52
2023/04/23 08:22:42;;;;;;;;;;;;;;;16.25;49.66;100989.13;5024759;28;1163;-53
2023/04/23 08:25:08;;;;;;;;;;;;;;;15.97;49.19;100980.16;5017320;28;1079;-53
2023/04/23 08:27:33;;;;;;;;;;;;;;;15.94;48.37;100979.91;5017797;28;1135;-52
2023/04/23 08:29:59;;;;;;;;;;;;;;;15.87;47.73;100980.13;5020148;28;918;-51
2023/04/23 08:32:24;;;;;;;;;;;;;;;16.87;48.73;100984.72;5017717;28;1107;-50
2023/04/23 08:34:50;;;;;;;;;;;;;;;16.20;49.32;100975.38;5017491;28;1060;-51
2023/04/23 08:37:15;;;;;;;;;;;;;;;15.98;48.79;100978.28;5017540;28;1127;-53
2023/04/23 08:39:41;;;;;;;;;;;;;;;17.16;48.54;100977.94;5017246;28;1906;-53
2023/04/23 08:42:10;;;;;;;;;;;;;;;16.31;49.54;100971.56;5026390;28;880;-53
2023/04/23 08:44:37;;;;;;;;;;;;;;;16.05;48.86;100971.44;5015816;28;1104;-52
2023/04/23 08:47:04;;;;;;;;;;;;;;;15.95;48.16;100973.28;5017706;28;1104;-51
2023/04/23 08:49:29;;;;;;;;;;;;;;;15.90;47.44;100976.84;5017480;28;1252;-52
2023/04/23 08:51:55;;;;;;;;;;;;;;;16.88;48.58;100980.88;5017463;28;1135;-54
2023/04/23 08:54:24;;;;;;;;;;;;;;;16.16;49.10;100976.97;5019230;28;953;-51
2023/04/23 08:56:50;;;;;;;;;;;;;;;15.99;48.56;100974.41;5016993;28;1015;-58
2023/04/23 08:59:17;;;;;;;;;;;;;;;16.05;48.86;100979.69;5016970;28;1913;-58
2023/04/23 09:01:42;;;;;;;;;;;;;;;16.39;48.86;100975.75;5010214;28;1286;-56
2023/04/23 09:04:08;;;;;;;;;;;;;;;16.04;48.67;100974.47;5016716;28;885;-56
2023/04/23 09:06:35;;;;;;;;;;;;;;;17.17;48.38;100979.59;5028684;28;975;-56
2023/04/23 09:09:00;;;;;;;;;;;;;;;16.36;49.29;100974.34;5004916;28;1163;-54
2023/04/23 09:11:26;;;;;;;;;;;;;;;16.09;48.78;100982.72;5004271;28;1064;-54
2023/04/23 09:13:51;;;;;;;;;;;;;;;16.15;48.99;100986.31;5017058;28;1221;-55
2023/04/23 09:16:17;;;;;;;;;;;;;;;16.58;48.93;100995.31;5017164;28;1179;-55
2023/04/23 09:18:42;;;;;;;;;;;;;;;16.07;49.02;100999.47;5022642;28;943;-51
2023/04/23 09:21:08;;;;;;;;;;;;;;;17.39;48.34;100999.41;5026126;28;1981;-54
2023/04/23 09:23:37;;;;;;;;;;;;;;;16.55;49.50;101009.56;5016480;28;1210;-53
2023/04/23 09:26:04;;;;;;;;;;;;;;;16.21;48.77;100999.78;5016606;28;1278;-51
2023/04/23 09:28:34;;;;;;;;;;;;;;;16.92;49.05;101001.22;5015909;28;1238;-52
2023/04/23 09:31:00;;;;;;;;;;;;;;;16.62;49.32;101004.69;5016298;28;1223;-54
2023/04/23 09:33:25;;;;;;;;;;;;;;;16.28;48.98;100999.56;5015433;28;1320;-53
2023/04/23 09:35:51;;;;;;;;;;;;;;;16.08;48.24;100995.59;5025932;28;1263;-51
2023/04/23 09:38:18;;;;;;;;;;;;;;;16.07;47.61;101004.94;5012327;28;1287;-53
2023/04/23 09:40:43;;;;;;;;;;;;;;;16.89;48.53;101009.19;5012717;28;1914;-56
2023/04/23 09:43:09;;;;;;;;;;;;;;;16.47;49.15;101005.44;5012777;28;1214;-55
2023/04/23 09:45:35;;;;;;;;;;;;;;;16.12;49.00;101006.03;5014690;28;1118;-53
2023/04/23 09:48:01;;;;;;;;;;;;;;;17.31;48.40;101007.38;5015922;28;886;-52
2023/04/23 09:50:32;;;;;;;;;;;;;;;16.45;49.27;100993.06;5020566;28;924;-52
2023/04/23 09:52:57;;;;;;;;;;;;;;;16.21;48.77;100994.28;5016184;28;853;-55
2023/04/23 09:55:30;;;;;;;;;;;;;;;16.10;48.07;100986.28;5023074;28;860;-54
2023/04/23 09:57:55;;;;;;;;;;;;;;;16.89;48.71;100989.97;5015914;28;1435;-55
2023/04/23 10:00:24;;;;;;;;;;;;;;;16.24;49.08;100980.06;5022223;28;1914;-51
2023/04/23 10:02:50;;;;;;;;;;;;;;;16.81;48.85;100980.28;5015061;28;964;-55
2023/04/23 10:05:17;;;;;;;;;;;;;;;16.66;48.97;100977.50;5019790;28;947;-53
2023/04/23 10:07:45;;;;;;;;;;;;;;;16.23;48.67;100975.66;5013358;28;1064;-52
2023/04/23 10:10:11;;;;;;;;;;;;;;;16.11;47.93;100966.00;5016293;28;847;-52
2023/04/23 10:12:37;;;;;;;;;;;;;;;15.99;47.55;100964.28;5022015;28;965;-52
2023/04/23 10:15:03;;;;;;;;;;;;;;;15.89;47.36;100964.22;5024102;28;890;-53
2023/04/23 10:17:29;;;;;;;;;;;;;;;16.99;48.25;100968.00;5022300;28;849;-53
2023/04/23 10:19:54;;;;;;;;;;;;;;;16.25;48.97;100964.44;5021587;28;1910;-54
2023/04/23 10:22:20;;;;;;;;;;;;;;;15.97;48.44;100955.47;5016475;28;1048;-54
2023/04/23 10:24:45;;;;;;;;;;;;;;;16.91;48.30;100954.81;5021702;28;827;-53
2023/04/23 10:27:12;;;;;;;;;;;;;;;16.28;48.85;100955.66;5017611;28;897;-53
2023/04/23 10:29:37;;;;;;;;;;;;;;;16.04;48.26;100961.56;5019868;28;866;-53
2023/04/23 10:32:03;;;;;;;;;;;;;;;16.43;48.56;100958.47;5019513;28;884;-53
2023/04/23 10:34:29;;;;;;;;;;;;;;;16.33;49.07;100946.63;5016130;28;927;-55
2023/04/23 10:36:56;;;;;;;;;;;;;;;16.15;49.05;100956.97;5018971;28;904;-56
2023/04/23 10:39:22;;;;;;;;;;;;;;;17.44;48.08;100949.09;5019665;28;1991;-56
2023/04/23 10:41:48;;;;;;;;;;;;;;;16.50;49.05;100941.75;5021346;28;896;-54
2023/04/23 10:44:15;;;;;;;;;;;;;;;16.29;48.46;100940.03;5015143;28;958;-55
2023/04/23 10:46:49;;;;;;;;;;;;;;;17.32;48.39;100941.13;5018332;28;1185;-55
2023/04/23 10:49:15;;;;;;;;;;;;;;;16.60;49.28;100940.97;5015710;28;959;-55
2023/04/23 10:51:44;;;;;;;;;;;;;;;16.24;48.97;100938.06;5014991;28;802;-56
2023/04/23 10:54:12;;;;;;;;;;;;;;;16.16;48.07;100938.56;5031430;28;991;-54
2023/04/23 10:56:38;;;;;;;;;;;;;;;15.99;47.72;100941.50;5005995;28;1134;-53
2023/04/23 10:59:19;;;;;;;;;;;;;;;15.95;47.39;100940.38;5021850;28;1906;-53
2023/04/23 11:01:46;;;;;;;;;;;;;;;16.72;48.76;100946.22;5016305;28;1013;-53
2023/04/23 11:04:21;;;;;;;;;;;;;;;16.18;48.74;100933.66;5014912;28;1131;-57
2023/04/23 11:06:47;;;;;;;;;;;;;;;15.99;48.40;100933.28;5014744;28;909;-55
2023/04/23 11:09:35;;;;;;;;;;;;;;;16.00;47.79;100930.25;5018908;28;1084;-56
2023/04/23 11:12:01;;;;;;;;;;;;;;;16.75;48.57;100935.50;5017984;28;1064;-56
2023/04/23 11:14:55;;;;;;;;;;;;;;;16.22;48.93;100929.28;5018941;28;995;-55
2023/04/23 11:17:22;;;;;;;;;;;;;;;16.03;48.09;100927.00;5003108;28;1530;-55
2023/04/23 11:20:20;;;;;;;;;;;;;;;16.03;47.50;100929.75;5027295;28;1965;-55
2023/04/23 11:22:46;;;;;;;;;;;;;;;16.40;48.19;100919.75;5002602;28;1306;-50
2023/04/23 11:25:25;;;;;;;;;;;;;;;16.38;48.71;100922.78;5014362;28;1128;-51
2023/04/23 11:27:50;;;;;;;;;;;;;;;16.08;48.16;100926.22;5011935;28;1231;-53
2023/04/23 11:30:17;;;;;;;;;;;;;;;16.84;48.33;100919.31;5008989;28;1254;-51
2023/04/23 11:32:48;;;;;;;;;;;;;;;16.20;48.82;100921.34;5009509;28;1285;-52
2023/04/23 11:35:14;;;;;;;;;;;;;;;16.05;48.10;100924.81;5006308;28;1220;-52
2023/04/23 11:37:40;;;;;;;;;;;;;;;16.83;48.31;100936.06;5002946;28;1290;-51
2023/04/23 11:40:09;;;;;;;;;;;;;;;16.42;48.84;100929.38;5009231;28;1977;-47
2023/04/23 11:42:42;;;;;;;;;;;;;;;16.06;48.26;100931.97;5017236;28;1037;-52
2023/04/23 11:45:13;;;;;;;;;;;;;;;17.19;48.14;100923.25;5017833;28;1155;-51
2023/04/23 11:47:39;;;;;;;;;;;;;;;16.30;49.20;100926.03;5012173;28;1158;-52
2023/04/23 11:50:05;;;;;;;;;;;;;;;16.11;48.62;100916.63;5015313;28;1310;-51
2023/04/23 11:52:30;;;;;;;;;;;;;;;16.41;48.72;100922.25;5018205;28;1287;-50
2023/04/23 11:54:56;;;;;;;;;;;;;;;16.48;48.96;100922.00;5022648;28;857;-48
2023/04/23 11:57:21;;;;;;;;;;;;;;;16.16;48.38;100917.47;5016366;28;1076;-53
2023/04/23 11:59:47;;;;;;;;;;;;;;;16.02;47.91;100914.38;5010045;28;1898;-51
2023/04/23 12:02:13;;;;;;;;;;;;;;;16.75;48.49;100910.78;5011638;28;984;-53
2023/04/23 12:04:38;;;;;;;;;;;;;;;16.56;48.73;100912.41;5017801;28;1131;-52
2023/04/23 12:07:04;;;;;;;;;;;;;;;16.21;48.35;100905.69;5028018;28;1012;-54
2023/04/23 12:09:29;;;;;;;;;;;;;;;16.13;47.76;100900.72;5029659;28;1147;-51
2023/04/23 12:11:55;;;;;;;;;;;;;;;16.56;48.31;100904.16;5017534;28;1130;-55
2023/04/23 12:14:27;;;;;;;;;;;;;;;16.50;48.65;100906.06;5017756;28;1144;-52
2023/04/23 12:16:52;;;;;;;;;;;;;;;16.15;48.64;100896.59;5017707;28;1066;-49
2023/04/23 12:19:19;;;;;;;;;;;;;;;16.07;47.92;100891.63;5023367;28;1898;-55
2023/04/23 12:21:53;;;;;;;;;;;;;;;16.62;48.15;100894.00;5013178;28;1486;-52
2023/04/23 12:24:22;;;;;;;;;;;;;;;16.56;48.60;100890.44;5014654;28;1203;-51
2023/04/23 12:26:53;;;;;;;;;;;;;;;16.28;48.58;100894.47;5016354;28;1191;-51
2023/04/23 12:29:19;;;;;;;;;;;;;;;16.05;47.97;100896.56;5011501;28;1181;-52
2023/04/23 12:31:44;;;;;;;;;;;;;;;16.90;47.99;100884.47;5009475;28;987;-52
2023/04/23 12:34:10;;;;;;;;;;;;;;;16.34;48.47;100887.91;5017547;28;1283;-51
2023/04/23 12:36:36;;;;;;;;;;;;;;;16.84;48.68;100880.88;5015615;28;1287;-56
2023/04/23 12:39:20;;;;;;;;;;;;;;;16.73;48.96;100882.81;5002072;28;1262;-52
2023/04/23 12:41:47;;;;;;;;;;;;;;;16.32;48.49;100874.44;5008392;28;1033;-52
2023/04/23 12:44:12;;;;;;;;;;;;;;;16.15;48.27;100873.84;5018779;28;862;-51
2023/04/23 12:46:38;;;;;;;;;;;;;;;16.11;47.37;100878.22;5016851;28;1537;-49